Terminal Aerodrome Forecast
Issued by NWS

Home | Current Version | Previous Version | Graphics & Text | Print | Product List | Glossary On
Versions: 1 2 3 4 5 6 7 8 9 10 11 12 13 14 15 16 17 18 19 20 21 22 23
000
FTUS43 KABR 221100
TAFATY
TAF
KATY 221136Z 2212/2312 VRB06KT 1/4SM FG VV002
      TEMPO 2212/2214 1/2SM FG
     FM221400 VRB06KT 2SM BR BKN004 BKN150
     FM221500 02006KT P6SM BKN008 BKN150
     FM221800 03006KT P6SM FEW010 SCT120
     FM230600 06007KT P6SM BKN080 OVC110=

USA.gov is the U.S. government's official web portal to all federal, state and local government web resources and services.